createdAt,value
2023-01-11T00:00:03.955Z,2.45
2023-01-11T00:01:09.123Z,3.10
2023-01-11T00:02:11.924Z,2.85
2023-01-11T00:03:15.353Z,3.62
2023-01-11T00:04:19.175Z,3.03
2023-01-11T00:05:21.967Z,3.10
2023-01-11T00:06:25.008Z,3.10
2023-01-11T00:07:27.795Z,3.17
2023-01-11T00:08:32.176Z,3.15
2023-01-11T00:09:34.952Z,3.10
2023-01-11T00:10:38.213Z,3.35
2023-01-11T00:11:41.286Z,2.87
2023-01-11T00:12:44.833Z,3.10
2023-01-11T00:13:47.531Z,2.95
2023-01-11T00:14:54.301Z,3.40
2023-01-11T00:15:57.222Z,3.03
2023-01-11T00:17:00.302Z,3.25
2023-01-11T00:18:03.567Z,2.75
2023-01-11T00:19:06.313Z,2.92
2023-01-11T00:20:10.671Z,3.20
2023-01-11T00:21:13.657Z,2.70
2023-01-11T00:22:16.522Z,3.08
2023-01-11T00:23:19.285Z,2.67
2023-01-11T00:24:22.168Z,2.70
2023-01-11T00:25:25.142Z,2.80
2023-01-11T00:26:27.851Z,2.92
2023-01-11T00:27:30.587Z,3.22
2023-01-11T00:28:33.851Z,3.03
2023-01-11T00:29:36.746Z,2.85
2023-01-11T00:30:39.496Z,3.22
2023-01-11T00:31:42.452Z,3.17
2023-01-11T00:32:45.293Z,3.37
2023-01-11T00:33:48.078Z,2.92
2023-01-11T00:34:50.739Z,2.78
2023-01-11T00:35:53.697Z,3.05
2023-01-11T00:36:56.362Z,2.87
2023-01-11T00:37:59.322Z,2.67
2023-01-11T00:39:02.142Z,2.87
2023-01-11T00:40:05.996Z,3.10
2023-01-11T00:41:27.569Z,3.03
2023-01-11T00:42:48.658Z,3.42
2023-01-11T00:44:10.537Z,3.10
2023-01-11T00:46:53.289Z,2.95
2023-01-11T00:48:00.455Z,2.90
2023-01-11T00:49:03.203Z,3.10
2023-01-11T00:50:06.288Z,2.55
2023-01-11T00:51:09.129Z,3.20
2023-01-11T00:52:12.434Z,2.83
2023-01-11T00:53:15.063Z,2.78
2023-01-11T00:54:18.011Z,3.12
2023-01-11T00:55:21.274Z,2.90
2023-01-11T00:56:25.580Z,3.25
2023-01-11T00:57:28.989Z,2.75
2023-01-11T00:58:31.898Z,3.15
2023-01-11T00:59:35.906Z,2.78
2023-01-11T01:00:38.880Z,2.30
2023-01-11T01:01:45.163Z,3.20
2023-01-11T01:02:48.584Z,2.90
2023-01-11T01:03:51.625Z,3.00
2023-01-11T01:04:55.641Z,3.30
2023-01-11T01:05:58.331Z,2.78
2023-01-11T01:07:01.359Z,3.05
2023-01-11T01:08:04.377Z,3.03
2023-01-11T01:09:11.176Z,3.15
2023-01-11T01:10:16.009Z,2.87
2023-01-11T01:11:18.940Z,2.87
2023-01-11T01:12:40.176Z,3.08
2023-01-11T01:14:01.488Z,2.85
2023-01-11T01:15:04.712Z,2.60
2023-01-11T01:16:07.877Z,3.37
2023-01-11T01:17:10.600Z,2.95
2023-01-11T01:18:13.408Z,3.22
2023-01-11T01:19:16.728Z,3.50
2023-01-11T01:20:20.964Z,3.08
2023-01-11T01:21:25.106Z,2.92
2023-01-11T01:22:27.747Z,2.87
2023-01-11T01:23:30.422Z,3.45
2023-01-11T01:24:34.115Z,3.00
2023-01-11T01:25:38.040Z,3.25
2023-01-11T01:26:41.151Z,3.65
2023-01-11T01:27:44.093Z,2.78
2023-01-11T01:28:46.824Z,3.08
2023-01-11T01:29:49.564Z,2.90
2023-01-11T01:30:52.466Z,3.30
2023-01-11T01:31:55.376Z,3.28
2023-01-11T01:32:58.265Z,3.35
2023-01-11T01:34:01.074Z,3.45
2023-01-11T01:35:04.247Z,3.22
2023-01-11T01:36:07.246Z,3.08
2023-01-11T01:37:12.122Z,3.17
2023-01-11T01:38:15.184Z,2.97
2023-01-11T01:39:18.209Z,2.97
2023-01-11T01:40:22.053Z,2.97
2023-01-11T01:41:24.828Z,3.47
2023-01-11T01:42:27.697Z,3.20
2023-01-11T01:43:56.931Z,2.80
2023-01-11T01:45:01.563Z,3.22
2023-01-11T01:46:06.056Z,3.20
2023-01-11T01:47:09.515Z,3.33
2023-01-11T01:48:21.249Z,2.95
2023-01-11T01:49:24.124Z,3.60
2023-01-11T01:50:32.439Z,3.10
2023-01-11T01:51:55.789Z,3.25
2023-01-11T01:53:17.322Z,3.47
2023-01-11T01:54:25.615Z,3.72
2023-01-11T01:55:36.277Z,3.12
2023-01-11T01:57:04.048Z,3.28
2023-01-11T01:58:14.023Z,2.80
2023-01-11T01:59:19.998Z,3.62
2023-01-11T02:00:22.864Z,3.25
2023-01-11T02:01:44.566Z,3.70
2023-01-11T02:02:49.235Z,3.40
2023-01-11T02:03:52.691Z,4.12
2023-01-11T02:04:58.234Z,4.25
2023-01-11T02:06:01.147Z,4.30
2023-01-11T02:07:33.943Z,3.87
2023-01-11T02:08:41.168Z,3.72
2023-01-11T02:10:05.089Z,3.70
2023-01-11T02:11:28.124Z,3.80
2023-01-11T02:12:36.163Z,3.67
2023-01-11T02:13:46.301Z,3.62
2023-01-11T02:14:49.898Z,3.72
2023-01-11T02:16:08.330Z,3.75
2023-01-11T02:17:11.859Z,3.60
2023-01-11T02:18:14.808Z,3.78
2023-01-11T02:19:55.886Z,3.53
2023-01-11T02:21:21.227Z,3.60
2023-01-11T02:22:57.838Z,3.20
2023-01-11T02:24:36.778Z,3.65
2023-01-11T02:26:10.713Z,3.53
2023-01-11T02:27:24.339Z,3.30
2023-01-11T02:28:42.714Z,3.28
2023-01-11T02:30:02.270Z,3.05
2023-01-11T02:31:14.250Z,3.55
2023-01-11T02:32:27.327Z,3.17
2023-01-11T02:33:42.425Z,3.87
2023-01-11T02:34:57.391Z,3.50
2023-01-11T02:36:13.817Z,3.62
2023-01-11T02:37:28.081Z,3.65
2023-01-11T02:39:08.820Z,3.78
2023-01-11T02:40:41.904Z,3.92
2023-01-11T02:42:25.340Z,3.95
2023-01-11T02:44:02.086Z,3.62
2023-01-11T02:45:24.210Z,4.00
2023-01-11T02:47:57.634Z,3.87
2023-01-11T02:49:14.237Z,3.85
2023-01-11T02:50:34.609Z,3.72
2023-01-11T02:51:43.150Z,3.58
2023-01-11T02:52:58.910Z,3.00
2023-01-11T02:54:13.204Z,3.67
2023-01-11T02:55:19.663Z,3.67
2023-01-11T02:56:27.632Z,4.05
2023-01-11T02:57:32.494Z,3.78
2023-01-11T02:58:40.090Z,3.75
2023-01-11T02:59:43.169Z,3.65
2023-01-11T03:00:47.503Z,3.45
2023-01-11T03:01:54.002Z,3.70
2023-01-11T03:03:11.197Z,3.90
2023-01-11T03:05:33.972Z,4.22
2023-01-11T03:06:36.742Z,3.50
2023-01-11T03:07:50.500Z,3.92
2023-01-11T03:09:19.304Z,3.12
2023-01-11T03:10:40.985Z,3.70
2023-01-11T03:12:28.263Z,3.53
2023-01-11T03:14:09.492Z,3.45
2023-01-11T03:15:33.610Z,3.47
2023-01-11T03:17:14.486Z,3.75
2023-01-11T03:18:52.164Z,3.33
2023-01-11T03:20:10.187Z,3.78
2023-01-11T03:21:25.909Z,2.95
2023-01-11T03:22:38.898Z,3.12
2023-01-11T03:23:48.145Z,3.67
2023-01-11T03:25:06.083Z,3.40
2023-01-11T03:26:17.276Z,4.10
2023-01-11T03:27:37.115Z,3.37
2023-01-11T03:29:06.740Z,3.28
2023-01-11T03:30:15.783Z,3.17
2023-01-11T03:31:42.982Z,3.50
2023-01-11T03:33:06.477Z,3.42
2023-01-11T03:34:23.537Z,3.12
2023-01-11T03:35:52.492Z,3.30
2023-01-11T03:37:06.297Z,3.33
2023-01-11T03:38:15.197Z,3.50
2023-01-11T03:39:20.937Z,2.95
2023-01-11T03:40:33.893Z,3.62
2023-01-11T03:41:40.606Z,3.78
2023-01-11T03:43:06.797Z,3.08
2023-01-11T03:44:13.005Z,3.20
2023-01-11T03:45:16.686Z,3.40
2023-01-11T03:46:28.850Z,3.62
2023-01-11T03:47:34.342Z,3.80
2023-01-11T03:48:45.955Z,3.37
2023-01-11T03:49:51.709Z,3.90
2023-01-11T03:50:56.617Z,3.55
2023-01-11T03:52:02.826Z,3.80
2023-01-11T03:53:09.140Z,3.30
2023-01-11T03:54:20.442Z,3.58
2023-01-11T03:55:29.781Z,3.75
2023-01-11T03:57:07.663Z,4.15
2023-01-11T03:58:10.957Z,3.58
2023-01-11T03:59:13.792Z,3.50
2023-01-11T04:00:19.151Z,3.03
2023-01-11T04:01:22.137Z,3.45
2023-01-11T04:02:28.365Z,3.20
2023-01-11T04:03:35.058Z,3.40
2023-01-11T04:04:38.010Z,3.40
2023-01-11T04:05:45.268Z,3.20
2023-01-11T04:06:48.279Z,3.47
2023-01-11T04:07:52.814Z,3.40
2023-01-11T04:08:55.778Z,3.45
2023-01-11T04:10:01.662Z,3.00
2023-01-11T04:11:05.329Z,3.20
2023-01-11T04:12:08.568Z,3.62
2023-01-11T04:13:11.789Z,3.37
2023-01-11T04:14:14.572Z,3.58
2023-01-11T04:15:17.855Z,3.65
2023-01-11T04:16:20.627Z,3.00
2023-01-11T04:17:23.445Z,3.17
2023-01-11T04:18:26.527Z,3.33
2023-01-11T04:19:29.312Z,3.62
2023-01-11T04:20:33.797Z,2.95
2023-01-11T04:21:37.603Z,3.20
2023-01-11T04:22:40.658Z,3.10
2023-01-11T04:23:43.498Z,3.25
2023-01-11T04:24:46.222Z,3.30
2023-01-11T04:25:49.043Z,3.17
2023-01-11T04:26:51.894Z,3.50
2023-01-11T04:27:55.052Z,3.35
2023-01-11T04:28:57.815Z,3.40
2023-01-11T04:30:00.478Z,2.87
2023-01-11T04:31:03.662Z,3.37
2023-01-11T04:32:06.521Z,3.75
2023-01-11T04:33:13.511Z,3.30
2023-01-11T04:34:16.302Z,3.05
2023-01-11T04:35:19.172Z,2.97
2023-01-11T04:36:22.161Z,3.20
2023-01-11T04:37:24.871Z,3.30
2023-01-11T04:38:27.671Z,2.90
2023-01-11T04:39:30.343Z,2.78
2023-01-11T04:40:33.049Z,2.87
2023-01-11T04:41:54.292Z,3.00
2023-01-11T04:42:57.065Z,3.00
2023-01-11T04:44:01.151Z,3.20
2023-01-11T04:45:06.236Z,3.15
2023-01-11T04:46:11.078Z,2.80
2023-01-11T04:47:14.152Z,2.85
2023-01-11T04:48:18.764Z,3.37
2023-01-11T04:49:21.797Z,3.10
2023-01-11T04:50:26.296Z,3.08
2023-01-11T04:51:29.354Z,3.00
2023-01-11T04:52:36.029Z,3.35
2023-01-11T04:53:38.818Z,3.25
2023-01-11T04:54:41.616Z,3.30
2023-01-11T04:55:44.314Z,3.47
2023-01-11T04:56:47.156Z,3.17
2023-01-11T04:57:49.973Z,2.55
2023-01-11T04:58:57.912Z,3.40
2023-01-11T05:00:00.854Z,3.00
2023-01-11T05:01:15.602Z,3.25
2023-01-11T05:02:18.543Z,2.83
2023-01-11T05:03:21.377Z,3.33
2023-01-11T05:04:24.459Z,3.62
2023-01-11T05:05:27.070Z,3.20
2023-01-11T05:06:30.045Z,3.40
2023-01-11T05:07:37.664Z,3.70
2023-01-11T05:08:47.764Z,3.00
2023-01-11T05:09:50.577Z,3.10
2023-01-11T05:11:02.120Z,3.55
2023-01-11T05:12:05.162Z,3.42
2023-01-11T05:13:07.984Z,3.15
2023-01-11T05:14:11.036Z,3.47
2023-01-11T05:15:15.152Z,3.05
2023-01-11T05:16:21.672Z,3.58
2023-01-11T05:17:24.452Z,3.80
2023-01-11T05:18:27.167Z,3.60
2023-01-11T05:19:30.070Z,2.55
2023-01-11T05:20:32.985Z,3.58
2023-01-11T05:21:42.351Z,3.17
2023-01-11T05:22:45.009Z,3.60
2023-01-11T05:23:48.387Z,3.22
2023-01-11T05:24:51.089Z,3.15
2023-01-11T05:25:53.821Z,3.47
2023-01-11T05:26:56.781Z,3.03
2023-01-11T05:27:59.575Z,4.07
2023-01-11T05:29:06.093Z,3.53
2023-01-11T05:30:10.016Z,4.30
2023-01-11T05:31:16.863Z,3.87
2023-01-11T05:32:19.727Z,3.50
2023-01-11T05:33:22.603Z,4.20
2023-01-11T05:34:25.424Z,3.65
2023-01-11T05:35:28.277Z,3.83
2023-01-11T05:36:31.215Z,3.95
2023-01-11T05:37:34.678Z,3.80
2023-01-11T05:38:37.559Z,3.75
2023-01-11T05:39:40.380Z,4.18
2023-01-11T05:40:49.057Z,3.40
2023-01-11T05:41:51.953Z,3.45
2023-01-11T05:42:54.634Z,3.67
2023-01-11T05:44:15.888Z,3.75
2023-01-11T05:45:32.254Z,3.28
2023-01-11T05:46:37.675Z,3.30
2023-01-11T05:47:40.567Z,3.50
2023-01-11T05:48:43.450Z,3.87
2023-01-11T05:49:46.670Z,3.65
2023-01-11T05:50:55.855Z,3.47
2023-01-11T05:51:59.583Z,3.80
2023-01-11T05:53:02.391Z,3.85
2023-01-11T05:54:06.970Z,3.50
2023-01-11T05:55:10.033Z,3.60
2023-01-11T05:56:12.831Z,3.97
2023-01-11T05:57:15.526Z,3.87
2023-01-11T05:58:19.033Z,4.55
2023-01-11T05:59:22.103Z,3.80
2023-01-11T06:00:25.277Z,4.03
2023-01-11T06:01:28.082Z,3.60
2023-01-11T06:02:32.327Z,3.50
2023-01-11T06:03:35.995Z,3.83
2023-01-11T06:04:39.016Z,3.33
2023-01-11T06:05:41.946Z,3.42
2023-01-11T06:06:44.633Z,3.70
2023-01-11T06:07:47.474Z,3.20
2023-01-11T06:08:50.135Z,3.67
2023-01-11T06:09:53.191Z,3.72
2023-01-11T06:10:56.921Z,3.45
2023-01-11T06:12:00.213Z,3.40
2023-01-11T06:13:21.914Z,3.33
2023-01-11T06:14:24.635Z,3.20
2023-01-11T06:15:27.413Z,3.30
2023-01-11T06:16:30.630Z,3.30
2023-01-11T06:17:33.338Z,3.42
2023-01-11T06:18:42.205Z,4.05
2023-01-11T06:19:44.975Z,3.30
2023-01-11T06:20:51.951Z,3.25
2023-01-11T06:21:55.204Z,3.08
2023-01-11T06:22:58.139Z,3.28
2023-01-11T06:24:01.294Z,3.47
2023-01-11T06:25:04.424Z,3.92
2023-01-11T06:26:09.648Z,3.10
2023-01-11T06:27:12.446Z,3.72
2023-01-11T06:28:15.644Z,3.75
2023-01-11T06:29:18.620Z,3.42
2023-01-11T06:30:21.613Z,3.05
2023-01-11T06:31:24.558Z,3.97
2023-01-11T06:32:29.604Z,3.67
2023-01-11T06:33:32.796Z,3.55
2023-01-11T06:34:39.015Z,4.12
2023-01-11T06:35:43.666Z,3.55
2023-01-11T06:36:46.628Z,3.60
2023-01-11T06:37:49.379Z,3.65
2023-01-11T06:38:52.947Z,3.55
2023-01-11T06:39:55.932Z,3.53
2023-01-11T06:41:01.100Z,3.55
2023-01-11T06:42:03.981Z,3.50
2023-01-11T06:43:08.203Z,3.53
2023-01-11T06:44:11.163Z,3.70
2023-01-11T06:45:13.972Z,3.00
2023-01-11T06:46:17.344Z,3.60
2023-01-11T06:47:20.453Z,3.65
2023-01-11T06:48:24.043Z,3.60
2023-01-11T06:49:26.919Z,3.40
2023-01-11T06:50:29.753Z,3.78
2023-01-11T06:51:32.616Z,3.30
2023-01-11T06:52:35.254Z,3.60
2023-01-11T06:53:38.679Z,3.60
2023-01-11T06:54:41.483Z,3.17
2023-01-11T06:55:44.365Z,3.28
2023-01-11T06:56:47.409Z,3.10
2023-01-11T06:57:50.390Z,3.33
2023-01-11T06:58:53.092Z,3.20
2023-01-11T06:59:59.033Z,3.40
2023-01-11T07:01:01.921Z,3.58
2023-01-11T07:02:05.971Z,3.35
2023-01-11T07:03:08.749Z,3.20
2023-01-11T07:04:11.716Z,3.30
2023-01-11T07:05:17.561Z,3.03
2023-01-11T07:06:21.918Z,3.30
2023-01-11T07:07:24.727Z,2.45
2023-01-11T07:08:28.262Z,2.97
2023-01-11T07:09:31.129Z,3.17
2023-01-11T07:10:33.946Z,2.87
2023-01-11T07:11:39.298Z,3.10
2023-01-11T07:12:42.653Z,2.83
2023-01-11T07:13:45.754Z,2.67
2023-01-11T07:14:48.709Z,2.72
2023-01-11T07:15:54.358Z,2.65
2023-01-11T07:16:57.473Z,3.03
2023-01-11T07:18:00.760Z,2.92
2023-01-11T07:19:03.554Z,2.78
2023-01-11T07:20:07.172Z,3.33
2023-01-11T07:21:10.100Z,2.70
2023-01-11T07:22:13.126Z,2.60
2023-01-11T07:23:15.851Z,2.95
2023-01-11T07:24:19.292Z,2.50
2023-01-11T07:25:22.099Z,2.80
2023-01-11T07:26:26.867Z,2.90
2023-01-11T07:27:29.704Z,2.70
2023-01-11T07:28:32.805Z,2.50
2023-01-11T07:29:35.612Z,2.70
2023-01-11T07:30:56.169Z,2.87
2023-01-11T07:32:00.696Z,3.42
2023-01-11T07:33:06.486Z,3.10
2023-01-11T07:34:09.697Z,2.78
2023-01-11T07:35:12.767Z,2.47
2023-01-11T07:36:15.636Z,3.00
2023-01-11T07:37:28.684Z,2.70
2023-01-11T07:38:32.683Z,3.03
2023-01-11T07:39:43.404Z,2.40
2023-01-11T07:40:46.762Z,3.22
2023-01-11T07:42:08.306Z,2.75
2023-01-11T07:43:15.792Z,3.10
2023-01-11T07:44:18.911Z,2.80
2023-01-11T07:45:21.807Z,2.65
2023-01-11T07:46:25.223Z,2.90
2023-01-11T07:47:28.240Z,2.25
2023-01-11T07:48:31.347Z,2.53
2023-01-11T07:49:34.178Z,2.60
2023-01-11T07:50:44.209Z,2.58
2023-01-11T07:51:47.880Z,2.75
2023-01-11T07:52:51.185Z,2.70
2023-01-11T07:53:54.261Z,2.70
2023-01-11T07:55:02.912Z,2.37
2023-01-11T07:56:06.030Z,2.45
2023-01-11T07:57:08.868Z,2.58
2023-01-11T07:58:12.971Z,2.87
2023-01-11T07:59:19.051Z,2.33
2023-01-11T08:00:25.721Z,2.40
2023-01-11T08:01:28.999Z,2.78
2023-01-11T08:02:32.007Z,2.45
2023-01-11T08:03:34.914Z,2.55
2023-01-11T08:04:37.843Z,2.40
2023-01-11T08:05:40.887Z,2.25
2023-01-11T08:06:43.860Z,2.53
2023-01-11T08:07:46.925Z,2.37
2023-01-11T08:08:49.810Z,2.53
2023-01-11T08:09:52.719Z,2.92
2023-01-11T08:11:14.161Z,4.93
2023-01-11T08:12:36.076Z,5.47
2023-01-11T08:13:57.906Z,5.20
2023-01-11T08:15:00.841Z,4.82
2023-01-11T08:16:03.899Z,5.10
2023-01-11T08:17:15.744Z,5.00
2023-01-11T08:18:20.241Z,4.82
2023-01-11T08:19:23.144Z,4.45
2023-01-11T08:20:27.282Z,4.40
2023-01-11T08:21:30.381Z,3.80
2023-01-11T08:22:33.290Z,4.20
2023-01-11T08:23:36.088Z,3.47
2023-01-11T08:24:38.843Z,3.50
2023-01-11T08:25:41.852Z,3.85
2023-01-11T08:26:45.707Z,3.72
2023-01-11T08:27:48.737Z,4.00
2023-01-11T08:28:52.188Z,4.72
2023-01-11T08:29:54.987Z,4.03
2023-01-11T08:30:57.819Z,4.00
2023-01-11T08:32:00.889Z,4.05
2023-01-11T08:33:05.241Z,3.50
2023-01-11T08:34:08.671Z,3.15
2023-01-11T08:35:11.449Z,3.17
2023-01-11T08:36:14.388Z,3.65
2023-01-11T08:37:17.206Z,3.45
2023-01-11T08:38:20.056Z,3.83
2023-01-11T08:39:23.469Z,3.28
2023-01-11T08:40:26.624Z,3.55
2023-01-11T08:41:29.322Z,3.22
2023-01-11T08:42:32.868Z,2.92
2023-01-11T08:43:35.662Z,2.92
2023-01-11T08:44:38.669Z,3.40
2023-01-11T08:45:41.417Z,3.03
2023-01-11T08:46:44.238Z,2.95
2023-01-11T08:47:47.240Z,3.30
2023-01-11T08:48:50.465Z,3.10
2023-01-11T08:49:53.542Z,3.70
2023-01-11T08:50:56.666Z,3.47
2023-01-11T08:51:59.621Z,3.40
2023-01-11T08:53:02.291Z,4.05
2023-01-11T08:54:07.768Z,4.28
2023-01-11T08:55:14.088Z,4.18
2023-01-11T08:56:16.829Z,4.53
2023-01-11T08:57:19.607Z,5.10
2023-01-11T08:58:22.540Z,5.55
2023-01-11T08:59:25.425Z,5.25
2023-01-11T09:00:28.232Z,4.62
2023-01-11T09:01:31.806Z,3.17
2023-01-11T09:02:34.834Z,3.50
2023-01-11T09:03:38.708Z,3.50
2023-01-11T09:04:42.162Z,3.03
2023-01-11T09:05:45.777Z,3.28
2023-01-11T09:06:48.595Z,3.47
2023-01-11T09:07:51.490Z,3.47
2023-01-11T09:08:54.678Z,3.90
2023-01-11T09:09:57.638Z,5.05
2023-01-11T09:11:01.247Z,4.45
2023-01-11T09:12:05.948Z,5.00
2023-01-11T09:13:09.233Z,5.70
2023-01-11T09:14:12.328Z,5.07
2023-01-11T09:15:15.185Z,5.47
2023-01-11T09:16:18.155Z,4.40
2023-01-11T09:17:21.040Z,5.10
2023-01-11T09:18:27.272Z,5.15
2023-01-11T09:19:30.084Z,4.70
2023-01-11T09:20:33.110Z,4.20
2023-01-11T09:21:35.849Z,4.20
2023-01-11T09:22:38.987Z,3.80
2023-01-11T09:23:45.322Z,3.15
2023-01-11T09:24:48.118Z,3.37
2023-01-11T09:25:50.943Z,3.47
2023-01-11T09:26:53.703Z,3.42
2023-01-11T09:27:56.563Z,3.53
2023-01-11T09:28:59.276Z,3.70
2023-01-11T09:30:02.835Z,3.37
2023-01-11T09:31:07.822Z,3.28
2023-01-11T09:32:10.683Z,3.40
2023-01-11T09:33:13.757Z,3.60
2023-01-11T09:34:16.949Z,4.05
2023-01-11T09:35:20.233Z,3.47
2023-01-11T09:36:28.151Z,3.83
2023-01-11T09:37:31.491Z,3.25
2023-01-11T09:38:35.195Z,3.78
2023-01-11T09:39:39.310Z,3.70
2023-01-11T09:40:57.455Z,3.08
2023-01-11T09:42:18.042Z,3.45
2023-01-11T09:43:27.502Z,3.70
2023-01-11T09:44:33.068Z,3.37
2023-01-11T09:45:36.835Z,3.75
2023-01-11T09:46:43.300Z,3.62
2023-01-11T09:47:56.733Z,3.50
2023-01-11T09:49:00.064Z,3.03
2023-01-11T09:50:07.114Z,3.00
2023-01-11T09:51:16.047Z,2.75
2023-01-11T09:52:58.762Z,2.58
2023-01-11T09:54:06.418Z,2.90
2023-01-11T09:55:15.504Z,2.67
2023-01-11T09:56:25.615Z,2.05
2023-01-11T09:57:48.235Z,2.03
2023-01-11T09:59:01.138Z,2.00
2023-01-11T10:00:23.900Z,2.72
2023-01-11T10:01:40.457Z,2.30
2023-01-11T10:03:22.285Z,2.37
2023-01-11T10:04:53.712Z,1.87
2023-01-11T10:06:15.276Z,1.65
2023-01-11T10:07:29.592Z,1.67
2023-01-11T10:18:30.188Z,1.50
2023-01-11T10:18:32.630Z,1.73
2023-01-11T10:19:33.087Z,1.65
2023-01-11T10:20:37.963Z,1.40
2023-01-11T10:21:53.679Z,1.02
2023-01-11T10:23:12.223Z,1.23
2023-01-11T10:24:31.218Z,1.40
2023-01-11T10:25:42.938Z,1.60
2023-01-11T10:26:46.790Z,1.50
2023-01-11T10:28:00.762Z,1.70
2023-01-11T10:29:21.519Z,1.45
2023-01-11T10:30:50.349Z,1.40
2023-01-11T10:32:02.258Z,1.30
2023-01-11T10:33:16.762Z,1.75
2023-01-11T10:34:56.433Z,1.40
2023-01-11T10:36:18.734Z,1.60
2023-01-11T10:37:25.982Z,1.55
2023-01-11T10:38:47.989Z,1.55
2023-01-11T10:40:43.509Z,1.45
2023-01-11T10:41:57.647Z,1.20
2023-01-11T10:43:17.243Z,1.60
2023-01-11T10:44:31.591Z,1.27
2023-01-11T10:45:40.157Z,1.55
2023-01-11T10:46:48.651Z,1.27
2023-01-11T10:48:03.215Z,1.52
2023-01-11T10:49:25.980Z,1.52
2023-01-11T10:50:40.376Z,1.40
2023-01-11T10:51:47.665Z,1.70
2023-01-11T10:53:07.828Z,1.50
2023-01-11T10:54:22.391Z,1.62
2023-01-11T10:55:29.154Z,1.42
2023-01-11T10:57:09.109Z,1.70
2023-01-11T10:58:32.069Z,1.75
2023-01-11T10:59:52.768Z,1.75
2023-01-11T11:01:10.719Z,1.23
2023-01-11T11:02:22.447Z,1.67
2023-01-11T11:03:38.590Z,1.45
2023-01-11T11:05:00.034Z,1.20
2023-01-11T11:06:41.907Z,1.60
2023-01-11T11:08:19.363Z,1.23
2023-01-11T11:09:44.609Z,1.50
2023-01-11T11:10:56.714Z,1.62
2023-01-11T11:12:10.371Z,1.25
2023-01-11T11:13:17.926Z,1.02
2023-01-11T11:14:23.672Z,1.48
2023-01-11T11:15:50.715Z,1.37
2023-01-11T11:17:05.066Z,1.40
2023-01-11T11:18:08.158Z,1.40
2023-01-11T11:19:15.569Z,1.55
2023-01-11T11:20:24.519Z,1.62
2023-01-11T11:21:38.273Z,1.37
2023-01-11T11:22:41.518Z,1.40
2023-01-11T11:23:46.193Z,1.65
2023-01-11T11:24:52.017Z,1.62
2023-01-11T11:26:02.932Z,1.67
2023-01-11T11:27:28.759Z,1.70
2023-01-11T11:28:33.721Z,1.40
2023-01-11T11:29:43.056Z,1.73
2023-01-11T11:30:48.617Z,1.50
2023-01-11T11:31:51.828Z,1.60
2023-01-11T11:33:05.168Z,1.58
2023-01-11T11:34:13.938Z,1.50
2023-01-11T11:35:41.277Z,1.60
2023-01-11T11:36:50.180Z,1.55
2023-01-11T11:37:55.048Z,1.15
2023-01-11T11:39:18.290Z,1.00
2023-01-11T11:40:38.000Z,1.67
2023-01-11T11:41:52.785Z,1.50
2023-01-11T11:43:22.418Z,1.55
2023-01-11T11:44:28.827Z,1.45
2023-01-11T11:45:31.574Z,1.58
2023-01-11T11:46:34.832Z,1.65
2023-01-11T11:47:38.672Z,1.85
2023-01-11T11:48:43.754Z,1.70
2023-01-11T11:49:47.710Z,1.45
2023-01-11T11:50:51.677Z,1.30
2023-01-11T11:51:55.377Z,1.50
2023-01-11T11:53:04.874Z,1.30
2023-01-11T11:54:16.967Z,1.30
2023-01-11T11:55:30.975Z,1.45
2023-01-11T11:56:36.029Z,1.60
2023-01-11T11:57:43.512Z,1.58
2023-01-11T11:58:47.452Z,1.55
2023-01-11T12:00:05.581Z,1.20
2023-01-11T12:01:37.699Z,1.60
2023-01-11T12:02:50.578Z,1.33
2023-01-11T12:03:57.573Z,1.20
2023-01-11T12:05:05.964Z,1.62
2023-01-11T12:06:09.051Z,1.40
2023-01-11T12:07:18.653Z,1.40
2023-01-11T12:08:24.953Z,1.42
2023-01-11T12:09:33.473Z,1.30
2023-01-11T12:10:36.385Z,1.30
2023-01-11T12:11:42.353Z,1.25
2023-01-11T12:12:54.179Z,1.55
2023-01-11T12:14:03.860Z,1.30
2023-01-11T12:15:19.787Z,1.25
2023-01-11T12:16:23.495Z,1.20
2023-01-11T12:17:26.656Z,1.67
2023-01-11T12:18:39.052Z,1.40
2023-01-11T12:19:45.393Z,1.40
2023-01-11T12:20:48.303Z,1.23
2023-01-11T12:21:51.603Z,1.60
2023-01-11T12:23:18.151Z,1.62
2023-01-11T12:24:22.550Z,1.45
2023-01-11T12:25:29.046Z,1.50
2023-01-11T12:26:56.328Z,1.30
2023-01-11T12:28:03.832Z,1.50
2023-01-11T12:29:17.356Z,1.55
2023-01-11T12:30:30.502Z,1.55
2023-01-11T12:32:00.991Z,1.45
2023-01-11T12:33:21.920Z,1.55
2023-01-11T12:34:36.640Z,1.52
2023-01-11T12:36:06.051Z,1.50
2023-01-11T12:37:55.728Z,1.58
2023-01-11T12:39:12.307Z,1.50
2023-01-11T12:40:39.285Z,1.70
2023-01-11T12:42:02.198Z,1.73
2023-01-11T12:43:18.742Z,2.50
2023-01-11T12:44:39.546Z,2.60
2023-01-11T12:46:19.150Z,3.40
2023-01-11T12:47:52.985Z,3.40
2023-01-11T12:49:03.635Z,3.55
2023-01-11T12:50:21.503Z,2.87
2023-01-11T12:51:34.247Z,3.20
2023-01-11T12:52:38.007Z,3.40
2023-01-11T12:53:45.734Z,3.10
2023-01-11T12:55:12.985Z,3.58
2023-01-11T12:56:29.600Z,3.25
2023-01-11T12:57:38.379Z,3.12
2023-01-11T12:58:52.745Z,3.20
2023-01-11T13:00:12.042Z,3.20
2023-01-11T13:01:41.651Z,3.22
2023-01-11T13:03:34.475Z,3.35
2023-01-11T13:05:57.746Z,3.40
2023-01-11T13:07:10.094Z,3.37
2023-01-11T13:08:16.650Z,3.30
2023-01-11T13:09:34.443Z,3.47
2023-01-11T13:10:49.745Z,3.70
2023-01-11T13:12:04.494Z,3.37
2023-01-11T13:13:16.637Z,3.65
2023-01-11T13:15:46.641Z,4.03
2023-01-11T13:17:11.104Z,3.80
2023-01-11T13:18:39.005Z,3.60
2023-01-11T13:20:07.390Z,3.67
2023-01-11T13:21:53.509Z,3.87
2023-01-11T13:23:15.332Z,3.20
2023-01-11T13:24:26.535Z,3.42
2023-01-11T13:25:39.219Z,3.83
2023-01-11T13:26:47.313Z,3.40
2023-01-11T13:27:53.200Z,3.45
2023-01-11T13:29:13.803Z,3.87
2023-01-11T13:30:20.036Z,4.10
2023-01-11T13:31:24.454Z,3.47
2023-01-11T13:32:37.778Z,4.28
2023-01-11T13:33:45.646Z,3.67
2023-01-11T13:35:13.610Z,3.50
2023-01-11T13:36:24.295Z,3.40
2023-01-11T13:37:34.475Z,3.03
2023-01-11T13:38:44.228Z,3.15
2023-01-11T13:39:58.404Z,2.97
2023-01-11T13:41:20.483Z,3.53
2023-01-11T13:43:45.141Z,3.20
2023-01-11T13:44:58.344Z,3.30
2023-01-11T13:46:11.423Z,3.67
2023-01-11T13:47:26.622Z,3.35
2023-01-11T13:48:41.166Z,3.45
2023-01-11T13:50:07.603Z,3.45
2023-01-11T13:51:10.717Z,3.30
2023-01-11T13:52:25.142Z,3.20
2023-01-11T13:53:34.063Z,2.62
2023-01-11T13:54:53.425Z,3.00
2023-01-11T13:56:11.687Z,3.50
2023-01-11T13:57:23.684Z,3.30
2023-01-11T13:58:37.090Z,3.78
2023-01-11T13:59:46.161Z,2.90
2023-01-11T14:01:11.046Z,3.42
2023-01-11T14:02:33.697Z,3.90
2023-01-11T14:03:51.965Z,3.47
2023-01-11T14:05:22.174Z,3.15
2023-01-11T14:06:45.838Z,3.40
2023-01-11T14:08:04.787Z,3.20
2023-01-11T14:09:28.630Z,3.83
2023-01-11T14:10:44.127Z,2.55
2023-01-11T14:12:15.331Z,2.60
2023-01-11T14:14:09.544Z,2.62
2023-01-11T14:15:26.760Z,3.08
2023-01-11T14:16:49.244Z,3.45
2023-01-11T14:18:12.143Z,3.17
2023-01-11T14:19:14.822Z,4.10
2023-01-11T14:20:50.364Z,3.90
2023-01-11T14:22:23.547Z,3.37
2023-01-11T14:23:48.961Z,3.87
2023-01-11T14:25:02.735Z,3.00
2023-01-11T14:26:11.066Z,2.92
2023-01-11T14:27:40.047Z,3.25
2023-01-11T14:28:44.355Z,2.92
2023-01-11T14:30:20.078Z,2.90
2023-01-11T14:32:03.424Z,2.87
2023-01-11T14:33:41.927Z,2.90
2023-01-11T14:35:21.349Z,3.05
2023-01-11T14:36:30.052Z,2.60
2023-01-11T14:38:00.892Z,2.97
2023-01-11T14:39:34.618Z,2.90
2023-01-11T14:40:48.835Z,2.85
2023-01-11T14:41:51.453Z,2.95
2023-01-11T14:43:12.992Z,2.87
2023-01-11T14:44:40.672Z,2.78
2023-01-11T14:46:07.822Z,2.40
2023-01-11T14:47:29.248Z,2.60
2023-01-11T14:48:59.765Z,3.25
2023-01-11T14:50:15.309Z,2.45
2023-01-11T14:51:38.259Z,2.75
2023-01-11T14:52:42.593Z,2.77
2023-01-11T14:54:06.091Z,2.95
2023-01-11T14:55:17.597Z,2.62
2023-01-11T14:56:48.339Z,3.28
2023-01-11T14:57:57.213Z,2.47
2023-01-11T14:59:22.104Z,3.25
2023-01-11T15:00:24.828Z,3.12
2023-01-11T15:01:27.992Z,2.80
2023-01-11T15:02:32.772Z,2.90
2023-01-11T15:03:47.353Z,2.87
2023-01-11T15:04:55.101Z,3.10
2023-01-11T15:06:17.095Z,2.50
2023-01-11T15:08:34.780Z,2.67
2023-01-11T15:09:55.148Z,2.85
2023-01-11T15:11:06.491Z,2.87
2023-01-11T15:12:13.335Z,3.28
2023-01-11T15:13:22.984Z,2.92
2023-01-11T15:14:32.922Z,3.15
2023-01-11T15:15:54.555Z,3.47
2023-01-11T15:17:20.988Z,3.53
2023-01-11T15:18:26.200Z,3.50
2023-01-11T15:19:35.737Z,3.28
2023-01-11T15:21:09.895Z,3.03
2023-01-11T15:22:35.303Z,3.03
2023-01-11T15:23:46.342Z,2.83
2023-01-11T15:24:57.426Z,2.75
2023-01-11T15:26:03.425Z,4.03
2023-01-11T15:27:06.515Z,3.60
2023-01-11T15:28:33.037Z,3.47
2023-01-11T15:29:42.468Z,3.17
2023-01-11T15:30:52.077Z,3.78
2023-01-11T15:31:55.032Z,3.72
2023-01-11T15:33:19.795Z,3.72
2023-01-11T15:34:31.299Z,3.92
2023-01-11T15:35:34.329Z,3.90
2023-01-11T15:37:15.657Z,3.67
2023-01-11T15:38:52.314Z,3.85
2023-01-11T15:39:59.800Z,3.67
2023-01-11T15:41:24.035Z,3.40
2023-01-11T15:42:51.246Z,3.58
2023-01-11T15:44:23.425Z,3.53
2023-01-11T15:46:22.718Z,3.22
2023-01-11T15:47:43.687Z,3.42
2023-01-11T15:48:56.940Z,3.55
2023-01-11T15:50:33.359Z,3.33